Terminal Aerodrome Forecast
Issued by NWS

Home | Current Version | Previous Version | Text Only | Print | Product List | Glossary On
Versions: 1 2 3 4 5 6 7 8 9 10 11 12 13 14 15 16
000
FTUS43 KDTX 060927 AAA
TAFMBS
TAF AMD
KMBS 060927Z 0609/0706 03005KT 5SM BR SCT080 OVC150
     FM061100 03005KT 5SM -SHRA BR OVC035
     FM061500 09007KT P6SM OVC015
     FM061900 03007KT P6SM BKN035=

USA.gov is the U.S. government's official web portal to all federal, state and local government web resources and services.